Weather at Senipah Heliport

Public forecast

Using degrees Celsius for public forecast. Weather courtesy of forecast.io.

Closest aviation weather report (METAR) to Senipah Heliport

Closest report is Sultan Aji Muhamad Sulaiman Airport, 23.2 nm (43.1 km) SW. Retrieved 2021/10/16 05:30 UTC (54 seconds ago):

WALL 160530Z 15004KT 9999 FEW020 32/25 Q1006

Closest aviation forecast (TAF) to Senipah Heliport

Closest forecast is Sultan Aji Muhamad Sulaiman Airport, 23.2 nm (43.1 km) SW. Retrieved 2021-10-16 00:00 UTC (6 hours ago):

TAF WALL 152300Z 1600/1706 27003KT 4000 BR FEW018CB SCT020 BECMG 1601/1603 9999 NSW